首页
METAR-TAF:

METAR-TAF

机场 :

累西腓/瓜拉拉皮斯-吉尔贝托·弗雷雷国际机场

累西腓, 伯南布哥, 巴西

纬度: 08-08S, 经度: 034-55W, 海拔: 19米

当前天气观测

该预报发布于17分钟前的03:00 UTC
风速2节,风向多变
温度 24°C
湿度 89%
气压 1010 hPa
能見度: 5000
少量云层高于1000英尺
多云层高于1800英尺
小雨, 轻雾

METAR: SBRF 260300Z VRB02KT 5000 -RA BR FEW010 BKN018 24/22 Q1010

时间: 00:17 (03:17 UTC)

预报

该预报发布于6小时和22分钟前的20:55 UTC
预报有效从26日的 00点(UTC)到 26日的 24点(UTC)
风速10节,风向东转东南
能见度10公里或以上
散云层高于1700英尺
成为
从 26日的 00点(UTC)到 26日的 02点(UTC)
风速6节,风向
成为
从 26日的 06点(UTC)到 26日的 08点(UTC)
风速4节,风向西
成为
从 26日的 10点(UTC)到 26日的 12点(UTC)
风速9节,风向
成为
从 26日的 18点(UTC)到 26日的 20点(UTC)
风速8节,风向东转东南

TAF: SBRF 252055Z 2600/2624 12010KT 9999 SCT017 TN24/2608Z TX29/2617Z BECMG 2600/2602 09006KT BECMG 2606/2608 26004KT BECMG 2610/2612 09009KT BECMG 2618/2620 11008KT RMK PGW

超过4000个机场的气象观测和天气预报(METAR&TAF报告)。

可查询的气象台以黄色和红色小点在地图上表示。

将鼠标移到小点上方,可查看气象台名称。

然后点击查看天气观测和预报。

如需切换地图:点击带黑十字的绿色按钮放大地图;点击带横线的绿色按钮缩小地图;或者点击绿色箭头查看邻近地区的地图。


METAR-TAF: